sensor_id;sensor_type;location;lat;lon;timestamp;pressure;altitude;pressure_sealevel;temperature
15079;BMP180;6932;51.438;5.470;2024-02-16T00:01:04;100554.00;;;17.90
15079;BMP180;6932;51.438;5.470;2024-02-16T00:03:30;100551.00;;;17.90
15079;BMP180;6932;51.438;5.470;2024-02-16T00:05:56;100553.00;;;17.90
15079;BMP180;6932;51.438;5.470;2024-02-16T00:08:22;100556.00;;;17.90
15079;BMP180;6932;51.438;5.470;2024-02-16T00:10:48;100549.00;;;17.90
15079;BMP180;6932;51.438;5.470;2024-02-16T00:13:14;100546.00;;;17.90
15079;BMP180;6932;51.438;5.470;2024-02-16T00:15:40;100550.00;;;17.90
15079;BMP180;6932;51.438;5.470;2024-02-16T00:18:08;100541.00;;;17.90
15079;BMP180;6932;51.438;5.470;2024-02-16T00:20:34;100540.00;;;17.90
15079;BMP180;6932;51.438;5.470;2024-02-16T00:23:00;100533.00;;;17.90
15079;BMP180;6932;51.438;5.470;2024-02-16T00:25:26;100537.00;;;17.90
15079;BMP180;6932;51.438;5.470;2024-02-16T00:27:52;100543.00;;;17.90
15079;BMP180;6932;51.438;5.470;2024-02-16T00:30:19;100531.00;;;17.90
15079;BMP180;6932;51.438;5.470;2024-02-16T00:32:45;100544.00;;;17.90
15079;BMP180;6932;51.438;5.470;2024-02-16T00:35:11;100540.00;;;17.90
15079;BMP180;6932;51.438;5.470;2024-02-16T00:37:37;100545.00;;;17.90
15079;BMP180;6932;51.438;5.470;2024-02-16T00:40:04;100543.00;;;17.80
15079;BMP180;6932;51.438;5.470;2024-02-16T00:42:32;100537.00;;;17.80
15079;BMP180;6932;51.438;5.470;2024-02-16T00:44:57;100548.00;;;17.80
15079;BMP180;6932;51.438;5.470;2024-02-16T00:47:26;100541.00;;;17.80
15079;BMP180;6932;51.438;5.470;2024-02-16T00:49:53;100531.00;;;17.80
15079;BMP180;6932;51.438;5.470;2024-02-16T00:52:19;100532.00;;;17.80
15079;BMP180;6932;51.438;5.470;2024-02-16T00:54:44;100525.00;;;17.80
15079;BMP180;6932;51.438;5.470;2024-02-16T00:57:12;100525.00;;;17.80
15079;BMP180;6932;51.438;5.470;2024-02-16T00:59:40;100515.00;;;17.80
15079;BMP180;6932;51.438;5.470;2024-02-16T01:02:06;100526.00;;;17.80
15079;BMP180;6932;51.438;5.470;2024-02-16T01:04:33;100532.00;;;17.70
15079;BMP180;6932;51.438;5.470;2024-02-16T01:06:59;100546.00;;;17.70
15079;BMP180;6932;51.438;5.470;2024-02-16T01:09:25;100537.00;;;17.70
15079;BMP180;6932;51.438;5.470;2024-02-16T01:11:52;100532.00;;;17.70
15079;BMP180;6932;51.438;5.470;2024-02-16T01:14:18;100525.00;;;17.70
15079;BMP180;6932;51.438;5.470;2024-02-16T01:16:44;100519.00;;;17.70
15079;BMP180;6932;51.438;5.470;2024-02-16T01:19:09;100520.00;;;17.70
15079;BMP180;6932;51.438;5.470;2024-02-16T01:21:35;100522.00;;;17.70
15079;BMP180;6932;51.438;5.470;2024-02-16T01:24:01;100518.00;;;17.70
15079;BMP180;6932;51.438;5.470;2024-02-16T01:26:27;100516.00;;;17.70
15079;BMP180;6932;51.438;5.470;2024-02-16T01:28:53;100515.00;;;17.70
15079;BMP180;6932;51.438;5.470;2024-02-16T01:31:19;100513.00;;;17.60
15079;BMP180;6932;51.438;5.470;2024-02-16T01:33:45;100511.00;;;17.60
15079;BMP180;6932;51.438;5.470;2024-02-16T01:36:11;100511.00;;;17.60
15079;BMP180;6932;51.438;5.470;2024-02-16T01:38:36;100499.00;;;17.60
15079;BMP180;6932;51.438;5.470;2024-02-16T01:41:02;100503.00;;;17.60
15079;BMP180;6932;51.438;5.470;2024-02-16T01:43:28;100503.00;;;17.50
15079;BMP180;6932;51.438;5.470;2024-02-16T01:45:54;100492.00;;;17.50
15079;BMP180;6932;51.438;5.470;2024-02-16T01:48:20;100490.00;;;17.50
15079;BMP180;6932;51.438;5.470;2024-02-16T01:50:47;100499.00;;;17.60
15079;BMP180;6932;51.438;5.470;2024-02-16T01:53:15;100493.00;;;17.50
15079;BMP180;6932;51.438;5.470;2024-02-16T01:55:47;100500.00;;;17.50
15079;BMP180;6932;51.438;5.470;2024-02-16T01:58:14;100495.00;;;17.60
15079;BMP180;6932;51.438;5.470;2024-02-16T02:00:40;100505.00;;;17.50
15079;BMP180;6932;51.438;5.470;2024-02-16T02:03:09;100498.00;;;17.50
15079;BMP180;6932;51.438;5.470;2024-02-16T02:05:44;100505.00;;;17.50
15079;BMP180;6932;51.438;5.470;2024-02-16T02:08:14;100504.00;;;17.50
15079;BMP180;6932;51.438;5.470;2024-02-16T02:10:40;100501.00;;;17.50
15079;BMP180;6932;51.438;5.470;2024-02-16T02:13:05;100503.00;;;17.50
15079;BMP180;6932;51.438;5.470;2024-02-16T02:15:31;100489.00;;;17.50
15079;BMP180;6932;51.438;5.470;2024-02-16T02:17:57;100494.00;;;17.50
15079;BMP180;6932;51.438;5.470;2024-02-16T02:20:25;100493.00;;;17.50
15079;BMP180;6932;51.438;5.470;2024-02-16T02:22:50;100495.00;;;17.50
15079;BMP180;6932;51.438;5.470;2024-02-16T02:25:16;100477.00;;;17.50
15079;BMP180;6932;51.438;5.470;2024-02-16T02:27:42;100482.00;;;17.50
15079;BMP180;6932;51.438;5.470;2024-02-16T02:30:08;100482.00;;;17.50
15079;BMP180;6932;51.438;5.470;2024-02-16T02:32:34;100481.00;;;17.50
15079;BMP180;6932;51.438;5.470;2024-02-16T02:35:02;100477.00;;;17.50
15079;BMP180;6932;51.438;5.470;2024-02-16T02:37:29;100482.00;;;17.50
15079;BMP180;6932;51.438;5.470;2024-02-16T02:39:55;100478.00;;;17.50
15079;BMP180;6932;51.438;5.470;2024-02-16T02:42:22;100472.00;;;17.50
15079;BMP180;6932;51.438;5.470;2024-02-16T02:44:48;100466.00;;;17.50
15079;BMP180;6932;51.438;5.470;2024-02-16T02:47:16;100463.00;;;17.50
15079;BMP180;6932;51.438;5.470;2024-02-16T02:49:44;100463.00;;;17.50
15079;BMP180;6932;51.438;5.470;2024-02-16T02:52:10;100464.00;;;17.50
15079;BMP180;6932;51.438;5.470;2024-02-16T02:54:36;100465.00;;;17.50
15079;BMP180;6932;51.438;5.470;2024-02-16T02:57:03;100469.00;;;17.50
15079;BMP180;6932;51.438;5.470;2024-02-16T02:59:29;100467.00;;;17.50
15079;BMP180;6932;51.438;5.470;2024-02-16T03:01:54;100463.00;;;17.50
15079;BMP180;6932;51.438;5.470;2024-02-16T03:04:20;100459.00;;;17.50
15079;BMP180;6932;51.438;5.470;2024-02-16T03:06:46;100452.00;;;17.50
15079;BMP180;6932;51.438;5.470;2024-02-16T03:09:12;100451.00;;;17.50
15079;BMP180;6932;51.438;5.470;2024-02-16T03:11:39;100446.00;;;17.50
15079;BMP180;6932;51.438;5.470;2024-02-16T03:14:05;100447.00;;;17.50
15079;BMP180;6932;51.438;5.470;2024-02-16T03:16:31;100444.00;;;17.50
15079;BMP180;6932;51.438;5.470;2024-02-16T03:18:58;100454.00;;;17.50
15079;BMP180;6932;51.438;5.470;2024-02-16T03:21:23;100449.00;;;17.50
15079;BMP180;6932;51.438;5.470;2024-02-16T03:23:49;100453.00;;;17.50
15079;BMP180;6932;51.438;5.470;2024-02-16T03:26:20;100457.00;;;17.50
15079;BMP180;6932;51.438;5.470;2024-02-16T03:28:47;100442.00;;;17.50
15079;BMP180;6932;51.438;5.470;2024-02-16T03:31:21;100447.00;;;17.50
15079;BMP180;6932;51.438;5.470;2024-02-16T03:33:48;100443.00;;;17.60
15079;BMP180;6932;51.438;5.470;2024-02-16T03:36:15;100443.00;;;17.60
15079;BMP180;6932;51.438;5.470;2024-02-16T03:38:46;100444.00;;;17.60
15079;BMP180;6932;51.438;5.470;2024-02-16T03:41:20;100450.00;;;17.60
15079;BMP180;6932;51.438;5.470;2024-02-16T03:43:46;100452.00;;;17.60
15079;BMP180;6932;51.438;5.470;2024-02-16T03:46:11;100450.00;;;17.60
15079;BMP180;6932;51.438;5.470;2024-02-16T03:48:39;100460.00;;;17.60
15079;BMP180;6932;51.438;5.470;2024-02-16T03:51:05;100452.00;;;17.60
15079;BMP180;6932;51.438;5.470;2024-02-16T03:53:31;100454.00;;;17.60
15079;BMP180;6932;51.438;5.470;2024-02-16T03:55:57;100446.00;;;17.70
15079;BMP180;6932;51.438;5.470;2024-02-16T03:58:24;100443.00;;;17.70
15079;BMP180;6932;51.438;5.470;2024-02-16T04:00:50;100442.00;;;17.70
15079;BMP180;6932;51.438;5.470;2024-02-16T04:03:16;100442.00;;;17.70
15079;BMP180;6932;51.438;5.470;2024-02-16T04:05:42;100445.00;;;17.70
15079;BMP180;6932;51.438;5.470;2024-02-16T04:08:08;100445.00;;;17.70
15079;BMP180;6932;51.438;5.470;2024-02-16T04:10:34;100452.00;;;17.80
15079;BMP180;6932;51.438;5.470;2024-02-16T04:13:00;100448.00;;;17.80
15079;BMP180;6932;51.438;5.470;2024-02-16T04:15:26;100450.00;;;17.80
15079;BMP180;6932;51.438;5.470;2024-02-16T04:17:52;100449.00;;;17.80
15079;BMP180;6932;51.438;5.470;2024-02-16T04:20:19;100441.00;;;17.80
15079;BMP180;6932;51.438;5.470;2024-02-16T04:22:45;100451.00;;;17.80
15079;BMP180;6932;51.438;5.470;2024-02-16T04:25:11;100462.00;;;17.80
15079;BMP180;6932;51.438;5.470;2024-02-16T04:27:38;100461.00;;;17.80
15079;BMP180;6932;51.438;5.470;2024-02-16T04:30:05;100458.00;;;17.90
15079;BMP180;6932;51.438;5.470;2024-02-16T04:32:31;100458.00;;;17.90
15079;BMP180;6932;51.438;5.470;2024-02-16T04:34:57;100463.00;;;17.90
15079;BMP180;6932;51.438;5.470;2024-02-16T04:37:23;100461.00;;;17.90
15079;BMP180;6932;51.438;5.470;2024-02-16T04:39:49;100470.00;;;17.90
15079;BMP180;6932;51.438;5.470;2024-02-16T04:42:16;100465.00;;;17.90
15079;BMP180;6932;51.438;5.470;2024-02-16T04:44:42;100459.00;;;17.90
15079;BMP180;6932;51.438;5.470;2024-02-16T04:47:08;100465.00;;;17.90
15079;BMP180;6932;51.438;5.470;2024-02-16T04:49:35;100459.00;;;17.90
15079;BMP180;6932;51.438;5.470;2024-02-16T04:52:01;100468.00;;;18.00
15079;BMP180;6932;51.438;5.470;2024-02-16T04:54:27;100466.00;;;18.00
15079;BMP180;6932;51.438;5.470;2024-02-16T04:56:52;100468.00;;;18.00
15079;BMP180;6932;51.438;5.470;2024-02-16T04:59:18;100459.00;;;18.00
15079;BMP180;6932;51.438;5.470;2024-02-16T05:01:44;100468.00;;;18.00
15079;BMP180;6932;51.438;5.470;2024-02-16T05:04:13;100453.00;;;18.00
15079;BMP180;6932;51.438;5.470;2024-02-16T05:06:43;100452.00;;;18.00
15079;BMP180;6932;51.438;5.470;2024-02-16T05:09:12;100454.00;;;18.00
15079;BMP180;6932;51.438;5.470;2024-02-16T05:11:39;100455.00;;;18.10
15079;BMP180;6932;51.438;5.470;2024-02-16T05:14:05;100463.00;;;18.10
15079;BMP180;6932;51.438;5.470;2024-02-16T05:16:31;100455.00;;;18.10
15079;BMP180;6932;51.438;5.470;2024-02-16T05:18:57;100457.00;;;18.10
15079;BMP180;6932;51.438;5.470;2024-02-16T05:21:23;100453.00;;;18.10
15079;BMP180;6932;51.438;5.470;2024-02-16T05:23:49;100455.00;;;18.20
15079;BMP180;6932;51.438;5.470;2024-02-16T05:26:14;100464.00;;;18.20
15079;BMP180;6932;51.438;5.470;2024-02-16T05:28:40;100465.00;;;18.20
15079;BMP180;6932;51.438;5.470;2024-02-16T05:31:17;100460.00;;;18.20
15079;BMP180;6932;51.438;5.470;2024-02-16T05:33:49;100458.00;;;18.20
15079;BMP180;6932;51.438;5.470;2024-02-16T05:36:22;100465.00;;;18.20
15079;BMP180;6932;51.438;5.470;2024-02-16T05:38:52;100456.00;;;18.30
15079;BMP180;6932;51.438;5.470;2024-02-16T05:41:21;100451.00;;;18.30
15079;BMP180;6932;51.438;5.470;2024-02-16T05:43:47;100461.00;;;18.30
15079;BMP180;6932;51.438;5.470;2024-02-16T05:46:15;100465.00;;;18.40
15079;BMP180;6932;51.438;5.470;2024-02-16T05:48:42;100460.00;;;18.40
15079;BMP180;6932;51.438;5.470;2024-02-16T05:51:08;100460.00;;;18.50
15079;BMP180;6932;51.438;5.470;2024-02-16T05:53:35;100466.00;;;18.50
15079;BMP180;6932;51.438;5.470;2024-02-16T05:56:02;100462.00;;;18.50
15079;BMP180;6932;51.438;5.470;2024-02-16T05:58:28;100480.00;;;18.50
15079;BMP180;6932;51.438;5.470;2024-02-16T06:00:54;100471.00;;;18.50
15079;BMP180;6932;51.438;5.470;2024-02-16T06:03:20;100484.00;;;18.60
15079;BMP180;6932;51.438;5.470;2024-02-16T06:05:47;100483.00;;;18.60
15079;BMP180;6932;51.438;5.470;2024-02-16T06:08:14;100486.00;;;18.60
15079;BMP180;6932;51.438;5.470;2024-02-16T06:10:43;100479.00;;;18.60
15079;BMP180;6932;51.438;5.470;2024-02-16T06:13:09;100480.00;;;18.70
15079;BMP180;6932;51.438;5.470;2024-02-16T06:15:35;100500.00;;;18.70
15079;BMP180;6932;51.438;5.470;2024-02-16T06:18:02;100496.00;;;18.70
15079;BMP180;6932;51.438;5.470;2024-02-16T06:20:28;100498.00;;;18.70
15079;BMP180;6932;51.438;5.470;2024-02-16T06:22:54;100496.00;;;18.70
15079;BMP180;6932;51.438;5.470;2024-02-16T06:25:19;100497.00;;;18.70
15079;BMP180;6932;51.438;5.470;2024-02-16T06:27:45;100504.00;;;18.80
15079;BMP180;6932;51.438;5.470;2024-02-16T06:30:12;100500.00;;;18.80
15079;BMP180;6932;51.438;5.470;2024-02-16T06:32:41;100514.00;;;18.70
15079;BMP180;6932;51.438;5.470;2024-02-16T06:35:08;100512.00;;;18.80
15079;BMP180;6932;51.438;5.470;2024-02-16T06:37:34;100519.00;;;18.80
15079;BMP180;6932;51.438;5.470;2024-02-16T06:40:00;100518.00;;;18.80
15079;BMP180;6932;51.438;5.470;2024-02-16T06:42:26;100525.00;;;18.80
15079;BMP180;6932;51.438;5.470;2024-02-16T06:44:51;100521.00;;;18.70
15079;BMP180;6932;51.438;5.470;2024-02-16T06:47:17;100524.00;;;18.80
15079;BMP180;6932;51.438;5.470;2024-02-16T06:49:44;100532.00;;;18.80
15079;BMP180;6932;51.438;5.470;2024-02-16T06:52:11;100518.00;;;18.80
15079;BMP180;6932;51.438;5.470;2024-02-16T06:54:38;100539.00;;;18.80
15079;BMP180;6932;51.438;5.470;2024-02-16T06:57:03;100538.00;;;18.70
15079;BMP180;6932;51.438;5.470;2024-02-16T06:59:29;100541.00;;;18.70
15079;BMP180;6932;51.438;5.470;2024-02-16T07:01:55;100542.00;;;18.70
15079;BMP180;6932;51.438;5.470;2024-02-16T07:04:20;100553.00;;;18.70
15079;BMP180;6932;51.438;5.470;2024-02-16T07:06:46;100554.00;;;18.70
15079;BMP180;6932;51.438;5.470;2024-02-16T07:09:12;100545.00;;;18.70
15079;BMP180;6932;51.438;5.470;2024-02-16T07:11:41;100566.00;;;18.70
15079;BMP180;6932;51.438;5.470;2024-02-16T07:14:08;100554.00;;;18.70
15079;BMP180;6932;51.438;5.470;2024-02-16T07:16:34;100556.00;;;18.70
15079;BMP180;6932;51.438;5.470;2024-02-16T07:19:00;100566.00;;;18.70
15079;BMP180;6932;51.438;5.470;2024-02-16T07:21:26;100574.00;;;18.70
15079;BMP180;6932;51.438;5.470;2024-02-16T07:23:53;100574.00;;;18.70
15079;BMP180;6932;51.438;5.470;2024-02-16T07:26:19;100579.00;;;18.70
15079;BMP180;6932;51.438;5.470;2024-02-16T07:28:44;100583.00;;;18.70
15079;BMP180;6932;51.438;5.470;2024-02-16T07:31:11;100591.00;;;18.70
15079;BMP180;6932;51.438;5.470;2024-02-16T07:33:37;100595.00;;;18.70
15079;BMP180;6932;51.438;5.470;2024-02-16T07:36:03;100596.00;;;18.70
15079;BMP180;6932;51.438;5.470;2024-02-16T07:38:30;100590.00;;;18.70
15079;BMP180;6932;51.438;5.470;2024-02-16T07:40:55;100599.00;;;18.70
15079;BMP180;6932;51.438;5.470;2024-02-16T07:43:21;100606.00;;;18.60
15079;BMP180;6932;51.438;5.470;2024-02-16T07:45:50;100618.00;;;18.70
15079;BMP180;6932;51.438;5.470;2024-02-16T07:48:15;100605.00;;;18.60
15079;BMP180;6932;51.438;5.470;2024-02-16T07:50:41;100600.00;;;18.60
15079;BMP180;6932;51.438;5.470;2024-02-16T07:53:07;100603.00;;;18.60
15079;BMP180;6932;51.438;5.470;2024-02-16T07:55:35;100609.00;;;18.60
15079;BMP180;6932;51.438;5.470;2024-02-16T07:58:01;100610.00;;;18.60
15079;BMP180;6932;51.438;5.470;2024-02-16T08:00:26;100610.00;;;18.60
15079;BMP180;6932;51.438;5.470;2024-02-16T08:02:53;100613.00;;;18.60
15079;BMP180;6932;51.438;5.470;2024-02-16T08:05:19;100614.00;;;18.60
15079;BMP180;6932;51.438;5.470;2024-02-16T08:07:46;100603.00;;;18.60
15079;BMP180;6932;51.438;5.470;2024-02-16T08:10:18;100614.00;;;18.60
15079;BMP180;6932;51.438;5.470;2024-02-16T08:12:43;100630.00;;;18.60
15079;BMP180;6932;51.438;5.470;2024-02-16T08:15:09;100636.00;;;18.60
15079;BMP180;6932;51.438;5.470;2024-02-16T08:17:36;100628.00;;;18.60
15079;BMP180;6932;51.438;5.470;2024-02-16T08:20:03;100633.00;;;18.60
15079;BMP180;6932;51.438;5.470;2024-02-16T08:22:29;100646.00;;;18.60
15079;BMP180;6932;51.438;5.470;2024-02-16T08:24:54;100647.00;;;18.60
15079;BMP180;6932;51.438;5.470;2024-02-16T08:27:20;100658.00;;;18.60
15079;BMP180;6932;51.438;5.470;2024-02-16T08:29:46;100667.00;;;18.60
15079;BMP180;6932;51.438;5.470;2024-02-16T08:32:12;100662.00;;;18.60
15079;BMP180;6932;51.438;5.470;2024-02-16T08:34:38;100673.00;;;18.70
15079;BMP180;6932;51.438;5.470;2024-02-16T08:37:05;100680.00;;;18.70
15079;BMP180;6932;51.438;5.470;2024-02-16T08:39:32;100677.00;;;18.70
15079;BMP180;6932;51.438;5.470;2024-02-16T08:41:59;100687.00;;;18.70
15079;BMP180;6932;51.438;5.470;2024-02-16T08:44:25;100690.00;;;18.70
15079;BMP180;6932;51.438;5.470;2024-02-16T08:46:52;100684.00;;;18.70
15079;BMP180;6932;51.438;5.470;2024-02-16T08:49:19;100694.00;;;18.70
15079;BMP180;6932;51.438;5.470;2024-02-16T08:51:45;100694.00;;;18.70
15079;BMP180;6932;51.438;5.470;2024-02-16T08:54:11;100696.00;;;18.70
15079;BMP180;6932;51.438;5.470;2024-02-16T08:56:36;100694.00;;;18.80
15079;BMP180;6932;51.438;5.470;2024-02-16T08:59:05;100699.00;;;18.80
15079;BMP180;6932;51.438;5.470;2024-02-16T09:01:38;100698.00;;;18.80
15079;BMP180;6932;51.438;5.470;2024-02-16T09:04:04;100699.00;;;18.80
15079;BMP180;6932;51.438;5.470;2024-02-16T09:06:30;100696.00;;;18.80
15079;BMP180;6932;51.438;5.470;2024-02-16T09:08:57;100702.00;;;18.80
15079;BMP180;6932;51.438;5.470;2024-02-16T09:11:23;100708.00;;;18.80
15079;BMP180;6932;51.438;5.470;2024-02-16T09:13:50;100711.00;;;18.90
15079;BMP180;6932;51.438;5.470;2024-02-16T09:16:16;100710.00;;;18.90
15079;BMP180;6932;51.438;5.470;2024-02-16T09:18:42;100721.00;;;18.90
15079;BMP180;6932;51.438;5.470;2024-02-16T09:21:08;100723.00;;;18.90
15079;BMP180;6932;51.438;5.470;2024-02-16T09:23:36;100725.00;;;18.90
15079;BMP180;6932;51.438;5.470;2024-02-16T09:26:02;100728.00;;;18.90
15079;BMP180;6932;51.438;5.470;2024-02-16T09:28:29;100731.00;;;18.90
15079;BMP180;6932;51.438;5.470;2024-02-16T09:30:56;100736.00;;;19.00
15079;BMP180;6932;51.438;5.470;2024-02-16T09:33:22;100741.00;;;19.00
15079;BMP180;6932;51.438;5.470;2024-02-16T09:35:50;100740.00;;;19.00
15079;BMP180;6932;51.438;5.470;2024-02-16T09:38:16;100748.00;;;19.00
15079;BMP180;6932;51.438;5.470;2024-02-16T09:40:43;100753.00;;;19.00
15079;BMP180;6932;51.438;5.470;2024-02-16T09:43:09;100754.00;;;19.00
15079;BMP180;6932;51.438;5.470;2024-02-16T09:45:35;100765.00;;;19.00
15079;BMP180;6932;51.438;5.470;2024-02-16T09:48:02;100767.00;;;19.00
15079;BMP180;6932;51.438;5.470;2024-02-16T09:50:30;100766.00;;;19.10
15079;BMP180;6932;51.438;5.470;2024-02-16T09:52:57;100770.00;;;19.10
15079;BMP180;6932;51.438;5.470;2024-02-16T09:55:23;100770.00;;;19.10
15079;BMP180;6932;51.438;5.470;2024-02-16T09:58:10;100778.00;;;19.00
15079;BMP180;6932;51.438;5.470;2024-02-16T10:00:47;100781.00;;;19.00
15079;BMP180;6932;51.438;5.470;2024-02-16T10:03:31;100792.00;;;19.00
15079;BMP180;6932;51.438;5.470;2024-02-16T10:06:09;100795.00;;;19.00
15079;BMP180;6932;51.438;5.470;2024-02-16T10:08:53;100796.00;;;18.90
15079;BMP180;6932;51.438;5.470;2024-02-16T10:11:22;100800.00;;;18.90
15079;BMP180;6932;51.438;5.470;2024-02-16T10:14:03;100806.00;;;18.90
15079;BMP180;6932;51.438;5.470;2024-02-16T10:16:30;100805.00;;;18.90
15079;BMP180;6932;51.438;5.470;2024-02-16T10:19:07;100797.00;;;18.90
15079;BMP180;6932;51.438;5.470;2024-02-16T10:21:33;100816.00;;;18.90
15079;BMP180;6932;51.438;5.470;2024-02-16T10:24:05;100819.00;;;18.90
15079;BMP180;6932;51.438;5.470;2024-02-16T10:26:42;100822.00;;;18.80
15079;BMP180;6932;51.438;5.470;2024-02-16T10:29:10;100823.00;;;18.90
15079;BMP180;6932;51.438;5.470;2024-02-16T10:31:36;100822.00;;;18.90
15079;BMP180;6932;51.438;5.470;2024-02-16T10:34:05;100826.00;;;18.90
15079;BMP180;6932;51.438;5.470;2024-02-16T10:36:36;100846.00;;;18.80
15079;BMP180;6932;51.438;5.470;2024-02-16T10:39:04;100836.00;;;18.90
15079;BMP180;6932;51.438;5.470;2024-02-16T10:44:05;100857.00;;;18.80
15079;BMP180;6932;51.438;5.470;2024-02-16T10:46:32;100858.00;;;18.80
15079;BMP180;6932;51.438;5.470;2024-02-16T10:48:58;100867.00;;;18.80
15079;BMP180;6932;51.438;5.470;2024-02-16T10:51:42;100871.00;;;18.80
15079;BMP180;6932;51.438;5.470;2024-02-16T10:54:10;100877.00;;;18.80
15079;BMP180;6932;51.438;5.470;2024-02-16T10:56:40;100876.00;;;18.80
15079;BMP180;6932;51.438;5.470;2024-02-16T10:59:09;100883.00;;;18.80
15079;BMP180;6932;51.438;5.470;2024-02-16T11:01:42;100885.00;;;18.80
15079;BMP180;6932;51.438;5.470;2024-02-16T11:04:15;100879.00;;;18.80
15079;BMP180;6932;51.438;5.470;2024-02-16T11:06:55;100881.00;;;18.70
15079;BMP180;6932;51.438;5.470;2024-02-16T11:09:35;100883.00;;;18.70
15079;BMP180;6932;51.438;5.470;2024-02-16T11:12:04;100886.00;;;18.70
15079;BMP180;6932;51.438;5.470;2024-02-16T11:14:44;100888.00;;;18.70
15079;BMP180;6932;51.438;5.470;2024-02-16T11:17:12;100901.00;;;18.70
15079;BMP180;6932;51.438;5.470;2024-02-16T11:19:47;100903.00;;;18.70
15079;BMP180;6932;51.438;5.470;2024-02-16T11:22:20;100901.00;;;18.70
15079;BMP180;6932;51.438;5.470;2024-02-16T11:24:48;100893.00;;;18.70
15079;BMP180;6932;51.438;5.470;2024-02-16T11:27:15;100902.00;;;18.70
15079;BMP180;6932;51.438;5.470;2024-02-16T11:29:45;100904.00;;;18.70
15079;BMP180;6932;51.438;5.470;2024-02-16T11:32:11;100901.00;;;18.70
15079;BMP180;6932;51.438;5.470;2024-02-16T11:34:37;100906.00;;;18.70
15079;BMP180;6932;51.438;5.470;2024-02-16T11:37:04;100901.00;;;18.70
15079;BMP180;6932;51.438;5.470;2024-02-16T11:39:31;100915.00;;;18.70
15079;BMP180;6932;51.438;5.470;2024-02-16T11:42:09;100918.00;;;18.60
15079;BMP180;6932;51.438;5.470;2024-02-16T11:44:40;100919.00;;;18.70
15079;BMP180;6932;51.438;5.470;2024-02-16T11:47:08;100925.00;;;18.70
15079;BMP180;6932;51.438;5.470;2024-02-16T11:49:42;100926.00;;;18.70
15079;BMP180;6932;51.438;5.470;2024-02-16T11:52:08;100931.00;;;18.70
15079;BMP180;6932;51.438;5.470;2024-02-16T11:54:34;100937.00;;;18.70
15079;BMP180;6932;51.438;5.470;2024-02-16T11:57:04;100942.00;;;18.70
15079;BMP180;6932;51.438;5.470;2024-02-16T11:59:30;100944.00;;;18.70
15079;BMP180;6932;51.438;5.470;2024-02-16T12:01:58;100950.00;;;18.70
15079;BMP180;6932;51.438;5.470;2024-02-16T12:04:29;100944.00;;;18.60
15079;BMP180;6932;51.438;5.470;2024-02-16T12:07:00;100950.00;;;18.60
15079;BMP180;6932;51.438;5.470;2024-02-16T12:09:27;100939.00;;;18.60
15079;BMP180;6932;51.438;5.470;2024-02-16T12:11:54;100947.00;;;18.60
15079;BMP180;6932;51.438;5.470;2024-02-16T12:14:24;100958.00;;;18.60
15079;BMP180;6932;51.438;5.470;2024-02-16T12:16:56;100960.00;;;18.50
15079;BMP180;6932;51.438;5.470;2024-02-16T12:19:23;100969.00;;;18.60
15079;BMP180;6932;51.438;5.470;2024-02-16T12:21:51;100972.00;;;18.50
15079;BMP180;6932;51.438;5.470;2024-02-16T12:24:18;100972.00;;;18.50
15079;BMP180;6932;51.438;5.470;2024-02-16T12:26:44;100975.00;;;18.50
15079;BMP180;6932;51.438;5.470;2024-02-16T12:29:10;100969.00;;;18.50
15079;BMP180;6932;51.438;5.470;2024-02-16T12:31:44;100979.00;;;18.50
15079;BMP180;6932;51.438;5.470;2024-02-16T12:34:11;100983.00;;;18.50
15079;BMP180;6932;51.438;5.470;2024-02-16T12:36:39;100985.00;;;18.50
15079;BMP180;6932;51.438;5.470;2024-02-16T12:39:06;100990.00;;;18.40
15079;BMP180;6932;51.438;5.470;2024-02-16T12:41:34;100987.00;;;18.40
15079;BMP180;6932;51.438;5.470;2024-02-16T12:44:01;101000.00;;;18.40
15079;BMP180;6932;51.438;5.470;2024-02-16T12:46:27;101006.00;;;18.40
15079;BMP180;6932;51.438;5.470;2024-02-16T12:48:56;101009.00;;;18.40
15079;BMP180;6932;51.438;5.470;2024-02-16T12:51:22;101014.00;;;18.40
15079;BMP180;6932;51.438;5.470;2024-02-16T12:53:48;101015.00;;;18.40
15079;BMP180;6932;51.438;5.470;2024-02-16T12:56:14;101023.00;;;18.40
15079;BMP180;6932;51.438;5.470;2024-02-16T12:58:40;101016.00;;;18.30
15079;BMP180;6932;51.438;5.470;2024-02-16T13:01:06;101028.00;;;18.30
15079;BMP180;6932;51.438;5.470;2024-02-16T13:03:37;101038.00;;;18.30
15079;BMP180;6932;51.438;5.470;2024-02-16T13:06:05;101028.00;;;18.30
15079;BMP180;6932;51.438;5.470;2024-02-16T13:08:31;101040.00;;;18.30
15079;BMP180;6932;51.438;5.470;2024-02-16T13:10:58;101056.00;;;18.30
15079;BMP180;6932;51.438;5.470;2024-02-16T13:13:24;101055.00;;;18.30
15079;BMP180;6932;51.438;5.470;2024-02-16T13:15:50;101056.00;;;18.30
15079;BMP180;6932;51.438;5.470;2024-02-16T13:18:17;101061.00;;;18.30
15079;BMP180;6932;51.438;5.470;2024-02-16T13:20:45;101072.00;;;18.30
15079;BMP180;6932;51.438;5.470;2024-02-16T13:23:12;101075.00;;;18.30
15079;BMP180;6932;51.438;5.470;2024-02-16T13:25:37;101079.00;;;18.30
15079;BMP180;6932;51.438;5.470;2024-02-16T13:28:03;101077.00;;;18.30
15079;BMP180;6932;51.438;5.470;2024-02-16T13:30:29;101077.00;;;18.20
15079;BMP180;6932;51.438;5.470;2024-02-16T13:32:55;101080.00;;;18.20
15079;BMP180;6932;51.438;5.470;2024-02-16T13:35:21;101088.00;;;18.20
15079;BMP180;6932;51.438;5.470;2024-02-16T13:37:48;101090.00;;;18.20
15079;BMP180;6932;51.438;5.470;2024-02-16T13:40:13;101096.00;;;18.20
15079;BMP180;6932;51.438;5.470;2024-02-16T13:42:40;101093.00;;;18.20
15079;BMP180;6932;51.438;5.470;2024-02-16T13:45:07;101093.00;;;18.10
15079;BMP180;6932;51.438;5.470;2024-02-16T13:47:33;101101.00;;;18.10
15079;BMP180;6932;51.438;5.470;2024-02-16T13:50:00;101106.00;;;18.10
15079;BMP180;6932;51.438;5.470;2024-02-16T13:52:26;101109.00;;;18.10
15079;BMP180;6932;51.438;5.470;2024-02-16T13:54:52;101107.00;;;18.00
15079;BMP180;6932;51.438;5.470;2024-02-16T13:57:18;101108.00;;;18.00
15079;BMP180;6932;51.438;5.470;2024-02-16T13:59:45;101102.00;;;18.00
15079;BMP180;6932;51.438;5.470;2024-02-16T14:02:12;101109.00;;;18.00
15079;BMP180;6932;51.438;5.470;2024-02-16T14:04:38;101118.00;;;18.00
15079;BMP180;6932;51.438;5.470;2024-02-16T14:07:04;101124.00;;;18.00
15079;BMP180;6932;51.438;5.470;2024-02-16T14:09:30;101129.00;;;18.00
15079;BMP180;6932;51.438;5.470;2024-02-16T14:11:56;101143.00;;;18.00